Time;durP1;ratioP1;P1;durP2;ratioP2;P2;SDS_P1;SDS_P2;PMS_P1;PMS_P2;Temp;Humidity;BMP_temperature;BMP_pressure;BME280_temperature;BME280_humidity;BME280_pressure;Samples;Min_cycle;Max_cycle;Signal;HPM_P1;HPM_P2
2022/04/23 00:00:12;;;;;;;11.75;10.18;;;6.50;99.90;;;;;;5042725;28;20224;-50
2022/04/23 00:02:43;;;;;;;14.32;11.63;;;6.50;99.90;;;;;;5042190;28;20200;-49
2022/04/23 00:05:13;;;;;;;12.70;10.50;;;6.50;99.90;;;;;;5042602;28;20283;-49
2022/04/23 00:07:41;;;;;;;11.98;10.75;;;6.40;99.90;;;;;;5042427;28;20257;-49
2022/04/23 00:10:09;;;;;;;15.75;11.52;;;6.30;99.90;;;;;;5040727;28;20208;-49
2022/04/23 00:12:37;;;;;;;11.85;10.40;;;6.30;99.90;;;;;;5041633;28;20196;-49
2022/04/23 00:15:06;;;;;;;11.70;10.38;;;6.40;99.90;;;;;;5041867;28;20267;-49
2022/04/23 00:17:33;;;;;;;13.57;9.98;;;6.30;99.90;;;;;;5042443;28;20434;-50
2022/04/23 00:20:00;;;;;;;13.20;10.38;;;6.40;99.90;;;;;;5041917;28;20224;-54
2022/04/23 00:22:29;;;;;;;14.90;11.02;;;6.30;99.90;;;;;;5042178;28;20207;-49
2022/04/23 00:24:57;;;;;;;10.93;9.38;;;6.20;99.90;;;;;;5041871;28;20400;-50
2022/04/23 00:27:25;;;;;;;10.90;9.50;;;6.20;99.90;;;;;;5033621;28;20247;-49
2022/04/23 00:29:52;;;;;;;17.00;12.45;;;6.20;99.90;;;;;;5021286;28;20454;-48
2022/04/23 00:32:19;;;;;;;11.52;9.63;;;6.00;99.90;;;;;;5022600;28;20254;-48
2022/04/23 00:34:46;;;;;;;11.75;9.60;;;6.00;99.90;;;;;;5021860;28;20197;-49
2022/04/23 00:37:14;;;;;;;13.60;10.82;;;6.10;99.90;;;;;;5021860;28;20500;-49
2022/04/23 00:39:44;;;;;;;10.48;9.57;;;6.10;99.90;;;;;;5021813;28;20221;-50
2022/04/23 00:42:11;;;;;;;14.93;11.45;;;6.10;99.90;;;;;;5021805;28;20208;-50
2022/04/23 00:44:39;;;;;;;12.57;10.27;;;6.10;99.90;;;;;;5027052;28;20215;-50
2022/04/23 00:47:07;;;;;;;12.30;11.02;;;5.90;99.90;;;;;;5049648;28;20219;-51
2022/04/23 00:49:34;;;;;;;11.05;9.20;;;5.90;99.90;;;;;;5061482;28;20507;-48
2022/04/23 00:52:02;;;;;;;13.52;10.27;;;5.80;99.90;;;;;;5061439;28;20196;-52
2022/04/23 00:54:30;;;;;;;14.80;10.80;;;5.70;99.90;;;;;;5061281;28;20219;-50
2022/04/23 00:56:58;;;;;;;11.90;9.90;;;5.70;99.90;;;;;;5061091;28;20249;-49
2022/04/23 00:59:27;;;;;;;12.90;10.75;;;5.80;99.90;;;;;;5061325;28;20334;-50
2022/04/23 01:01:54;;;;;;;12.90;10.68;;;5.90;99.90;;;;;;5061247;28;20401;-48
2022/04/23 01:04:21;;;;;;;11.75;10.23;;;5.90;99.90;;;;;;5061081;28;20425;-49
2022/04/23 01:06:49;;;;;;;13.20;11.48;;;5.90;99.90;;;;;;5060952;28;20436;-51
2022/04/23 01:09:16;;;;;;;16.20;11.32;;;5.90;99.90;;;;;;5061139;28;20298;-52
2022/04/23 01:11:43;;;;;;;14.02;9.77;;;5.80;99.90;;;;;;5060875;28;20317;-47
2022/04/23 01:14:11;;;;;;;14.23;11.10;;;5.90;99.90;;;;;;5061168;28;20203;-52
2022/04/23 01:16:42;;;;;;;10.80;9.23;;;5.60;99.90;;;;;;5060898;28;20198;-53
2022/04/23 01:19:10;;;;;;;11.98;10.00;;;5.60;99.90;;;;;;5060909;28;20249;-50
2022/04/23 01:21:37;;;;;;;11.00;9.90;;;5.60;99.90;;;;;;5060977;28;20195;-51
2022/04/23 01:24:04;;;;;;;14.50;10.95;;;5.50;99.90;;;;;;5060508;28;20195;-51
2022/04/23 01:26:32;;;;;;;10.80;9.70;;;5.50;99.90;;;;;;5065639;28;20206;-51
2022/04/23 01:29:00;;;;;;;13.02;10.80;;;5.70;99.90;;;;;;5067578;28;20395;-50
2022/04/23 01:31:28;;;;;;;11.88;9.48;;;5.80;99.90;;;;;;5060752;28;20203;-50
2022/04/23 01:33:56;;;;;;;12.43;10.13;;;5.80;99.90;;;;;;5060542;28;20230;-51
2022/04/23 01:36:23;;;;;;;12.60;11.25;;;5.70;99.90;;;;;;5060912;28;20206;-51
2022/04/23 01:38:51;;;;;;;13.13;11.25;;;5.60;99.90;;;;;;5060221;28;20305;-48
2022/04/23 01:41:18;;;;;;;17.02;12.95;;;5.40;99.90;;;;;;5060426;28;20228;-53
2022/04/23 01:43:45;;;;;;;14.48;10.65;;;5.40;99.90;;;;;;5060080;28;20198;-50
2022/04/23 01:46:13;;;;;;;12.30;10.75;;;5.20;99.90;;;;;;5060950;28;20250;-53
2022/04/23 01:48:40;;;;;;;15.95;12.25;;;5.00;99.90;;;;;;5060081;28;20282;-50
2022/04/23 01:51:07;;;;;;;16.10;12.43;;;5.10;99.90;;;;;;5060338;28;20222;-50
2022/04/23 01:53:35;;;;;;;16.50;11.95;;;5.10;99.90;;;;;;5060176;28;20221;-49
2022/04/23 01:56:02;;;;;;;18.23;12.85;;;5.10;99.90;;;;;;5060254;28;20432;-51
2022/04/23 01:58:30;;;;;;;13.23;11.60;;;5.20;99.90;;;;;;5060136;28;20237;-49
2022/04/23 02:00:59;;;;;;;13.30;11.05;;;5.10;99.90;;;;;;5060088;28;20199;-49
2022/04/23 02:03:32;;;;;;;13.65;11.40;;;5.10;99.90;;;;;;5060033;28;20203;-49
2022/04/23 02:05:59;;;;;;;14.90;12.90;;;5.20;99.90;;;;;;5059804;28;20200;-50
2022/04/23 02:08:27;;;;;;;15.00;12.00;;;5.00;99.90;;;;;;5059994;28;20219;-50
2022/04/23 02:10:54;;;;;;;12.13;10.75;;;5.00;99.90;;;;;;5059550;28;20286;-50
2022/04/23 02:13:22;;;;;;;11.88;10.68;;;5.00;99.90;;;;;;5060250;28;20214;-51
2022/04/23 02:15:50;;;;;;;11.65;10.45;;;5.10;99.90;;;;;;5059214;28;20241;-49
2022/04/23 02:18:17;;;;;;;12.23;10.40;;;5.20;99.90;;;;;;5059425;28;20195;-50
2022/04/23 02:20:45;;;;;;;12.93;10.35;;;5.10;99.90;;;;;;5059672;28;20265;-49
2022/04/23 02:23:12;;;;;;;15.23;11.45;;;5.00;99.90;;;;;;5059934;28;20210;-50
2022/04/23 02:25:39;;;;;;;13.07;10.75;;;5.10;99.90;;;;;;5060257;28;20217;-51
2022/04/23 02:28:07;;;;;;;13.40;10.45;;;5.10;99.90;;;;;;5060272;28;20207;-51
2022/04/23 02:30:34;;;;;;;14.93;10.95;;;5.00;99.90;;;;;;5059343;28;20298;-51
2022/04/23 02:33:02;;;;;;;11.90;10.68;;;5.00;99.90;;;;;;5059586;28;20198;-49
2022/04/23 02:35:31;;;;;;;13.10;11.23;;;5.10;99.90;;;;;;5058872;28;20196;-49
2022/04/23 02:38:00;;;;;;;11.63;10.38;;;5.00;99.90;;;;;;5059397;28;20288;-50
2022/04/23 02:40:28;;;;;;;12.20;10.27;;;4.90;99.90;;;;;;5059460;28;20199;-49
2022/04/23 02:42:56;;;;;;;15.80;11.70;;;4.80;99.90;;;;;;5059609;28;20471;-49
2022/04/23 02:45:25;;;;;;;12.73;11.52;;;5.10;99.90;;;;;;5059104;28;20512;-49
2022/04/23 02:47:55;;;;;;;14.95;12.27;;;4.90;99.90;;;;;;5059514;28;20203;-51
2022/04/23 02:50:25;;;;;;;13.50;11.63;;;5.10;99.90;;;;;;5059520;28;20407;-49
2022/04/23 02:52:56;;;;;;;13.02;10.80;;;5.20;99.90;;;;;;5060311;28;20204;-49
2022/04/23 02:55:26;;;;;;;12.55;11.02;;;5.30;99.90;;;;;;5062693;28;20199;-50
2022/04/23 02:58:04;;;;;;;14.32;11.73;;;5.40;99.90;;;;;;5061790;28;20195;-50
2022/04/23 03:00:32;;;;;;;15.02;12.95;;;5.30;99.90;;;;;;5061965;28;20205;-50
2022/04/23 03:03:00;;;;;;;18.55;13.18;;;5.00;99.90;;;;;;5060533;28;20211;-48
2022/04/23 03:05:28;;;;;;;13.13;10.75;;;4.90;99.90;;;;;;5059040;28;20274;-51
2022/04/23 03:07:55;;;;;;;13.85;11.02;;;5.10;99.90;;;;;;5059410;28;20233;-48
2022/04/23 03:10:22;;;;;;;12.95;11.10;;;5.10;99.90;;;;;;5060147;28;20221;-53
2022/04/23 03:12:49;;;;;;;17.65;11.82;;;5.10;99.90;;;;;;5059319;28;20270;-49
2022/04/23 03:15:17;;;;;;;13.80;12.00;;;4.90;99.90;;;;;;5059456;28;20202;-51
2022/04/23 03:17:49;;;;;;;14.43;12.00;;;5.00;99.90;;;;;;5059312;28;20209;-48
2022/04/23 03:20:16;;;;;;;13.07;10.20;;;5.10;99.90;;;;;;5059441;28;20253;-50
2022/04/23 03:22:43;;;;;;;13.00;11.43;;;5.20;99.90;;;;;;5059074;28;20389;-52
2022/04/23 03:25:11;;;;;;;14.88;13.00;;;5.10;99.90;;;;;;5059698;28;20255;-49
2022/04/23 03:27:39;;;;;;;14.30;11.70;;;5.10;99.90;;;;;;5059161;28;20202;-50
2022/04/23 03:30:07;;;;;;;15.98;12.38;;;5.00;99.90;;;;;;5059143;28;20276;-51
2022/04/23 03:32:34;;;;;;;14.35;11.93;;;5.00;99.90;;;;;;5059528;28;20498;-50
2022/04/23 03:35:05;;;;;;;13.93;12.43;;;5.00;99.90;;;;;;5059530;28;20453;-50
2022/04/23 03:37:33;;;;;;;17.50;13.10;;;4.90;99.90;;;;;;5058961;28;20243;-48
2022/04/23 03:40:05;;;;;;;14.35;12.02;;;4.90;99.90;;;;;;5059105;28;20267;-51
2022/04/23 03:42:34;;;;;;;13.90;11.57;;;4.90;99.90;;;;;;5059242;28;20353;-49
2022/04/23 03:45:04;;;;;;;16.63;13.65;;;4.90;99.90;;;;;;5058682;28;20206;-49
2022/04/23 03:47:31;;;;;;;17.10;13.10;;;4.80;99.90;;;;;;5060494;28;20217;-49
2022/04/23 03:50:07;;;;;;;13.82;12.38;;;4.70;99.90;;;;;;5062071;28;20246;-50
2022/04/23 03:52:35;;;;;;;13.27;11.85;;;4.70;99.90;;;;;;5063128;28;20208;-50
2022/04/23 03:55:04;;;;;;;17.92;12.80;;;4.70;99.90;;;;;;5062482;28;20237;-47
2022/04/23 03:57:32;;;;;;;13.93;12.43;;;4.70;99.90;;;;;;5063116;28;20532;-48
2022/04/23 04:00:04;;;;;;;15.32;12.88;;;4.70;99.90;;;;;;5062290;28;20691;-49
2022/04/23 04:02:31;;;;;;;17.52;14.45;;;4.50;99.90;;;;;;5062993;28;20209;-50
2022/04/23 04:04:59;;;;;;;13.02;11.60;;;4.40;99.90;;;;;;5062164;28;20239;-50
2022/04/23 04:07:27;;;;;;;14.15;12.68;;;4.30;99.90;;;;;;5062539;28;20210;-52
2022/04/23 04:09:54;;;;;;;19.08;14.02;;;4.40;99.90;;;;;;5061961;28;20450;-51
2022/04/23 04:12:21;;;;;;;20.83;14.90;;;4.60;99.90;;;;;;5064525;28;20200;-49
2022/04/23 04:14:49;;;;;;;17.20;14.02;;;4.80;99.90;;;;;;5066208;28;20210;-51
2022/04/23 04:17:17;;;;;;;22.00;13.90;;;4.70;99.90;;;;;;5062815;28;20389;-51
2022/04/23 04:19:45;;;;;;;18.90;14.30;;;4.70;99.90;;;;;;5062056;28;20583;-52
2022/04/23 04:22:12;;;;;;;17.10;14.65;;;4.90;99.90;;;;;;5063718;28;20198;-50
2022/04/23 04:24:42;;;;;;;21.77;15.73;;;5.10;99.90;;;;;;5064753;28;20461;-50
2022/04/23 04:27:10;;;;;;;19.40;16.38;;;5.30;99.90;;;;;;5066482;28;20205;-50
2022/04/23 04:29:36;;;;;;;16.75;14.18;;;5.30;99.90;;;;;;5066027;28;20207;-52
2022/04/23 04:32:04;;;;;;;17.13;14.57;;;5.40;99.90;;;;;;5062770;28;20553;-51
2022/04/23 04:34:31;;;;;;;19.15;15.35;;;5.70;99.90;;;;;;5061890;28;20199;-53
2022/04/23 04:37:01;;;;;;;17.20;14.90;;;5.90;99.90;;;;;;5061445;28;20202;-50
2022/04/23 04:39:32;;;;;;;15.98;11.90;;;6.10;99.90;;;;;;5061527;28;20410;-49
2022/04/23 04:41:59;;;;;;;14.68;11.82;;;6.30;99.90;;;;;;5061164;28;20556;-50
2022/04/23 04:44:27;;;;;;;14.65;11.85;;;6.50;99.90;;;;;;5061909;28;20205;-50
2022/04/23 04:46:54;;;;;;;14.73;12.60;;;6.70;99.90;;;;;;5061211;28;20207;-51
2022/04/23 04:49:25;;;;;;;18.08;13.30;;;6.70;99.90;;;;;;5061892;28;20462;-52
2022/04/23 04:51:56;;;;;;;15.95;11.45;;;6.70;99.90;;;;;;5050158;28;20285;-50
2022/04/23 04:54:26;;;;;;;17.48;12.40;;;6.60;99.90;;;;;;5044335;28;20250;-50
2022/04/23 04:56:54;;;;;;;17.38;12.63;;;6.70;99.90;;;;;;5044152;28;20200;-52
2022/04/23 04:59:21;;;;;;;17.52;12.13;;;6.70;99.90;;;;;;5050651;28;20593;-50
2022/04/23 05:01:50;;;;;;;13.52;11.85;;;7.00;99.90;;;;;;5057012;28;20564;-49
2022/04/23 05:04:19;;;;;;;16.75;11.85;;;7.20;99.90;;;;;;5061218;28;20199;-48
2022/04/23 05:06:47;;;;;;;14.90;13.07;;;7.40;99.90;;;;;;5059418;28;20432;-49
2022/04/23 05:09:14;;;;;;;15.50;13.57;;;7.60;99.90;;;;;;5051978;28;20557;-47
2022/04/23 05:11:42;;;;;;;15.13;12.82;;;7.80;99.90;;;;;;5060723;28;20224;-48
2022/04/23 05:14:09;;;;;;;15.77;11.15;;;7.90;99.90;;;;;;5060789;28;20522;-50
2022/04/23 05:16:36;;;;;;;16.65;13.88;;;7.90;99.90;;;;;;5060846;28;20225;-51
2022/04/23 05:19:04;;;;;;;22.08;15.25;;;8.00;99.90;;;;;;5060562;28;20261;-50
2022/04/23 05:21:31;;;;;;;15.13;13.02;;;8.20;99.90;;;;;;5060072;28;20525;-49
2022/04/23 05:23:58;;;;;;;14.27;11.85;;;8.30;99.90;;;;;;5048275;28;20295;-50
2022/04/23 05:26:26;;;;;;;16.92;13.10;;;8.30;99.90;;;;;;5027206;28;20209;-50
2022/04/23 05:28:53;;;;;;;15.93;13.45;;;8.40;99.90;;;;;;5033568;28;20432;-50
2022/04/23 05:31:21;;;;;;;14.27;12.57;;;8.60;99.90;;;;;;5031740;28;20499;-51
2022/04/23 05:33:48;;;;;;;19.13;15.07;;;8.90;99.90;;;;;;5036760;28;20452;-51
2022/04/23 05:36:15;;;;;;;17.33;13.15;;;9.20;99.90;;;;;;5034893;28;20197;-49
2022/04/23 05:38:43;;;;;;;13.07;11.77;;;9.30;99.90;;;;;;5034082;28;20233;-48
2022/04/23 05:41:10;;;;;;;15.50;12.82;;;9.30;99.90;;;;;;5033357;28;20417;-51
2022/04/23 05:43:37;;;;;;;18.15;13.73;;;9.50;99.90;;;;;;5032249;28;20200;-51
2022/04/23 05:46:05;;;;;;;19.10;15.32;;;9.60;99.90;;;;;;5033405;28;20221;-50
2022/04/23 05:48:37;;;;;;;23.50;20.70;;;9.80;99.90;;;;;;5031605;28;20259;-49
2022/04/23 05:51:04;;;;;;;26.73;24.23;;;9.80;99.90;;;;;;5031263;28;20532;-50
2022/04/23 05:53:35;;;;;;;32.78;29.52;;;10.00;99.90;;;;;;5033608;28;20275;-49
2022/04/23 05:56:03;;;;;;;30.42;27.25;;;10.30;99.90;;;;;;5028331;28;20210;-51
2022/04/23 05:58:34;;;;;;;27.77;24.48;;;10.50;99.90;;;;;;5039280;28;20596;-50
2022/04/23 06:01:01;;;;;;;25.55;22.75;;;10.70;99.90;;;;;;5036789;28;20213;-51
2022/04/23 06:03:29;;;;;;;23.83;19.52;;;10.90;99.90;;;;;;5038473;28;20248;-49
2022/04/23 06:05:56;;;;;;;21.13;17.40;;;11.40;99.90;;;;;;5041905;28;20231;-51
2022/04/23 06:08:23;;;;;;;23.27;18.63;;;12.20;99.90;;;;;;5034016;28;20227;-53
2022/04/23 06:10:51;;;;;;;20.25;15.60;;;12.60;99.90;;;;;;5037939;28;20224;-49
2022/04/23 06:13:18;;;;;;;17.83;15.93;;;13.10;99.90;;;;;;5035342;28;20200;-48
2022/04/23 06:15:46;;;;;;;18.65;16.75;;;13.50;99.90;;;;;;5039453;28;20200;-49
2022/04/23 06:18:13;;;;;;;16.25;14.07;;;13.90;99.90;;;;;;5038658;28;20424;-49
2022/04/23 06:20:41;;;;;;;15.13;13.20;;;13.70;99.90;;;;;;5039315;28;20211;-48
2022/04/23 06:23:08;;;;;;;16.13;12.82;;;13.80;99.90;;;;;;5039682;28;20204;-51
2022/04/23 06:25:36;;;;;;;14.23;12.73;;;13.90;99.90;;;;;;5039834;28;20515;-49
2022/04/23 06:28:04;;;;;;;17.13;12.45;;;14.60;99.90;;;;;;5039815;28;20207;-48
2022/04/23 06:30:31;;;;;;;16.50;13.00;;;15.00;99.90;;;;;;5040036;28;20217;-52
2022/04/23 06:32:59;;;;;;;15.88;12.77;;;15.30;99.90;;;;;;5039677;28;20196;-52
2022/04/23 06:35:26;;;;;;;12.83;11.50;;;16.10;99.90;;;;;;5040129;28;20244;-49
2022/04/23 06:37:54;;;;;;;12.80;11.60;;;17.30;99.90;;;;;;5039306;28;20434;-51
2022/04/23 06:40:21;;;;;;;13.80;12.40;;;18.00;99.90;;;;;;5039708;28;20498;-49
2022/04/23 06:42:49;;;;;;;14.03;12.67;;;18.90;99.90;;;;;;5039369;28;20399;-49
2022/04/23 06:45:17;;;;;;;15.83;12.27;;;19.70;99.90;;;;;;5040076;28;20411;-50
2022/04/23 06:47:44;;;;;;;11.67;10.47;;;19.40;99.90;;;;;;5039590;28;20414;-51
2022/04/23 06:50:11;;;;;;;11.67;10.57;;;19.20;99.90;;;;;;5039555;28;20469;-51
2022/04/23 06:52:38;;;;;;;14.43;9.63;;;19.20;99.90;;;;;;5038516;28;20450;-50
2022/04/23 06:55:07;;;;;;;11.20;10.20;;;19.60;99.00;;;;;;5039485;28;20400;-51
2022/04/23 06:57:43;;;;;;;9.43;8.63;;;21.20;97.30;;;;;;5039918;28;20409;-53
2022/04/23 07:00:11;;;;;;;11.20;9.20;;;22.60;93.60;;;;;;5042334;28;20422;-49
2022/04/23 07:02:39;;;;;;;8.63;7.83;;;23.00;91.10;;;;;;5040182;28;20491;-51
2022/04/23 07:05:07;;;;;;;9.13;8.23;;;25.10;84.10;;;;;;5039265;28;20430;-52
2022/04/23 07:07:34;;;;;;;8.47;7.53;;;25.80;75.90;;;;;;5039152;28;20441;-53
2022/04/23 07:10:02;;;;;;;9.70;8.00;;;24.80;71.90;;;;;;5037888;28;20461;-51
2022/04/23 07:12:29;;;;;;;7.60;7.00;;;24.30;72.40;;;;;;5039175;28;20472;-53
2022/04/23 07:14:57;;;;;;;7.87;7.07;;;25.20;69.80;;;;;;5039055;28;20835;-50
2022/04/23 07:17:25;;;;;;;8.17;7.30;;;25.20;67.30;;;;;;5039541;28;20433;-51
2022/04/23 07:19:53;;;;;;;7.27;6.57;;;24.20;67.10;;;;;;5039171;28;20450;-52
2022/04/23 07:22:20;;;;;;;6.90;6.20;;;24.10;68.00;;;;;;5042085;28;20495;-52
2022/04/23 07:24:50;;;;;;;8.93;6.53;;;22.40;69.70;;;;;;5042549;28;20433;-50
2022/04/23 07:27:17;;;;;;;7.57;6.40;;;23.10;68.90;;;;;;5043011;28;20456;-51
2022/04/23 07:29:45;;;;;;;7.40;6.23;;;22.30;69.10;;;;;;5042349;28;20461;-51
2022/04/23 07:32:12;;;;;;;6.77;6.07;;;22.90;68.50;;;;;;5042730;28;20839;-51
2022/04/23 07:37:28;;;;;;;7.03;6.30;;;25.20;63.80;;;;;;5042529;28;20407;-53
2022/04/23 07:40:01;;;;;;;6.80;6.20;;;24.20;65.00;;;;;;5042288;28;20450;-52
2022/04/23 07:42:28;;;;;;;6.57;5.47;;;24.80;63.10;;;;;;5042749;28;20460;-53
2022/04/23 07:44:56;;;;;;;7.13;6.13;;;25.20;62.60;;;;;;5042172;28;20609;-52
2022/04/23 07:47:23;;;;;;;7.70;7.00;;;24.30;62.80;;;;;;5042659;28;20479;-52
2022/04/23 07:49:51;;;;;;;6.93;6.33;;;25.60;62.10;;;;;;5041957;28;20789;-51
2022/04/23 07:52:18;;;;;;;6.80;6.10;;;27.20;59.10;;;;;;5042436;28;20472;-53
2022/04/23 07:54:45;;;;;;;7.13;6.43;;;27.40;57.90;;;;;;5042031;28;20426;-50
2022/04/23 07:57:13;;;;;;;6.60;5.80;;;27.10;57.60;;;;;;5042289;28;20430;-52
2022/04/23 07:59:41;;;;;;;8.03;7.43;;;27.90;57.00;;;;;;5042123;28;20477;-51
2022/04/23 08:02:10;;;;;;;7.73;7.03;;;27.80;56.20;;;;;;5042515;28;20512;-52
2022/04/23 08:04:37;;;;;;;7.87;7.13;;;28.20;55.70;;;;;;5041588;28;20447;-50
2022/04/23 08:07:05;;;;;;;6.73;6.13;;;27.10;56.40;;;;;;5041913;28;20513;-50
2022/04/23 08:09:39;;;;;;;8.30;7.40;;;26.50;56.90;;;;;;5041810;28;20517;-51
2022/04/23 08:12:09;;;;;;;7.73;7.03;;;26.30;58.00;;;;;;5042347;28;20510;-50
2022/04/23 08:14:38;;;;;;;8.43;7.20;;;27.20;56.20;;;;;;5041814;28;20453;-52
2022/04/23 08:17:05;;;;;;;7.60;7.00;;;27.30;55.60;;;;;;5041919;28;20660;-50
2022/04/23 08:19:33;;;;;;;8.53;7.83;;;28.20;55.10;;;;;;5041836;28;20487;-53
2022/04/23 08:22:01;;;;;;;8.17;7.37;;;26.70;55.10;;;;;;5041744;28;20442;-50
2022/04/23 08:24:30;;;;;;;8.83;8.03;;;26.80;56.30;;;;;;5041999;28;20481;-51
2022/04/23 08:27:00;;;;;;;6.87;6.23;;;28.20;55.60;;;;;;5041385;28;20440;-52
2022/04/23 08:32:13;;;;;;;6.53;5.87;;;27.90;53.40;;;;;;5040901;28;20813;-49
2022/04/23 08:34:40;;;;;;;6.20;5.60;;;26.70;54.60;;;;;;5041466;28;20496;-50
2022/04/23 08:37:07;;;;;;;6.70;6.10;;;26.70;54.70;;;;;;5041337;28;20436;-53
2022/04/23 08:39:35;;;;;;;7.13;6.43;;;26.80;54.60;;;;;;5041750;28;20468;-50
2022/04/23 08:42:06;;;;;;;6.47;5.87;;;28.30;53.50;;;;;;5041664;28;20636;-50
2022/04/23 08:44:33;;;;;;;7.00;6.40;;;27.30;52.90;;;;;;5042063;28;20764;-51
2022/04/23 08:47:01;;;;;;;7.83;7.07;;;28.00;52.40;;;;;;5044391;28;20697;-50
2022/04/23 08:49:38;;;;;;;9.17;7.10;;;28.40;52.40;;;;;;5047528;28;20872;-52
2022/04/23 08:52:16;;;;;;;7.00;6.40;;;29.20;51.40;;;;;;5043036;28;20563;-51
2022/04/23 08:54:47;;;;;;;7.67;6.90;;;28.40;51.10;;;;;;5043883;28;20481;-49
2022/04/23 08:57:15;;;;;;;9.87;6.87;;;26.50;53.40;;;;;;5042303;28;20431;-53
2022/04/23 08:59:44;;;;;;;7.53;6.93;;;27.00;53.30;;;;;;5042044;28;20449;-51
2022/04/23 09:02:14;;;;;;;9.27;7.87;;;28.30;52.30;;;;;;5041593;28;20476;-52
2022/04/23 09:04:42;;;;;;;8.13;7.43;;;29.40;50.00;;;;;;5041659;28;20430;-49
2022/04/23 09:07:20;;;;;;;7.77;7.00;;;26.40;53.10;;;;;;5041282;28;20458;-50
2022/04/23 09:09:49;;;;;;;7.57;6.83;;;26.60;54.30;;;;;;5042736;28;20536;-50
2022/04/23 09:12:17;;;;;;;7.30;6.57;;;26.80;53.40;;;;;;5047241;28;20469;-52
2022/04/23 09:14:45;;;;;;;8.40;7.53;;;26.90;53.10;;;;;;5046177;28;20421;-52
2022/04/23 09:25:41;;;;;;;6.13;5.53;;;23.60;58.30;;;;;;5041059;28;20430;-51
2022/04/23 09:28:17;;;;;;;6.53;6.03;;;23.00;60.20;;;;;;5040329;28;20433;-51
2022/04/23 09:30:46;;;;;;;6.40;5.80;;;22.00;63.10;;;;;;5040831;28;20765;-50
2022/04/23 09:33:15;;;;;;;5.90;5.37;;;21.10;63.60;;;;;;5040911;28;20494;-50
2022/04/23 09:35:55;;;;;;;4.97;4.57;;;20.40;65.90;;;;;;5040560;28;20410;-52
2022/04/23 09:38:24;;;;;;;6.03;5.40;;;19.90;67.20;;;;;;5040416;28;20458;-52
2022/04/23 09:40:55;;;;;;;7.33;5.40;;;19.60;68.60;;;;;;5040346;28;20416;-51
2022/04/23 09:43:30;;;;;;;6.53;6.03;;;18.50;69.10;;;;;;5040455;28;20444;-50
2022/04/23 09:46:04;;;;;;;5.70;5.20;;;17.90;70.80;;;;;;5041203;28;20433;-50
2022/04/23 09:48:43;;;;;;;8.90;5.03;;;17.40;73.00;;;;;;5040738;28;20463;-53
2022/04/23 09:51:25;;;;;;;7.53;5.47;;;17.40;72.90;;;;;;5039944;28;20685;-51
2022/04/23 09:53:54;;;;;;;4.93;4.50;;;17.30;74.00;;;;;;5038607;28;20422;-49
2022/04/23 09:56:24;;;;;;;5.37;4.60;;;16.80;76.30;;;;;;5040371;28;20436;-53
2022/04/23 09:58:55;;;;;;;6.37;5.50;;;16.30;77.00;;;;;;5040162;28;20760;-50
2022/04/23 10:01:24;;;;;;;5.70;5.10;;;16.10;77.80;;;;;;5040738;28;20413;-50
2022/04/23 10:03:54;;;;;;;5.53;5.07;;;16.20;78.40;;;;;;5040401;28;20432;-50
2022/04/23 10:06:23;;;;;;;6.73;6.13;;;15.80;79.30;;;;;;5040318;28;20494;-50
2022/04/23 10:08:59;;;;;;;6.57;4.87;;;15.80;80.20;;;;;;5040120;28;20418;-52
2022/04/23 10:11:30;;;;;;;6.00;5.50;;;16.00;80.30;;;;;;5040050;28;20434;-52
2022/04/23 10:14:10;;;;;;;5.00;4.60;;;16.70;80.60;;;;;;5040476;28;20624;-50
2022/04/23 10:16:39;;;;;;;5.93;5.37;;;17.30;77.60;;;;;;5040217;28;20452;-49
2022/04/23 10:19:09;;;;;;;6.77;5.17;;;18.10;75.90;;;;;;5040254;28;20535;-53
2022/04/23 10:22:04;;;;;;;6.43;5.93;;;18.10;74.60;;;;;;5040175;28;20444;-51
2022/04/23 10:24:43;;;;;;;8.00;5.40;;;17.80;75.60;;;;;;5040577;28;20800;-50
2022/04/23 10:27:14;;;;;;;5.40;4.90;;;17.80;76.70;;;;;;5040203;28;20679;-50
2022/04/23 10:29:41;;;;;;;5.87;4.20;;;17.60;74.90;;;;;;5040682;28;20732;-52
2022/04/23 10:32:17;;;;;;;8.13;5.90;;;17.80;74.70;;;;;;5039792;28;20717;-48
2022/04/23 10:34:45;;;;;;;5.40;4.83;;;17.60;75.90;;;;;;5040664;28;20466;-50
2022/04/23 10:37:18;;;;;;;6.03;5.17;;;17.00;77.20;;;;;;5041046;28;20419;-53
2022/04/23 10:39:51;;;;;;;6.93;4.60;;;16.70;78.80;;;;;;5041284;28;20523;-54
2022/04/23 10:42:24;;;;;;;5.50;5.00;;;16.20;80.20;;;;;;5040595;28;20439;-49
2022/04/23 10:44:55;;;;;;;5.80;5.20;;;16.20;79.70;;;;;;5041114;28;20457;-51
2022/04/23 10:47:34;;;;;;;6.20;4.53;;;16.50;80.40;;;;;;5041658;28;20672;-51
2022/04/23 10:50:19;;;;;;;8.90;5.90;;;16.70;79.90;;;;;;5041921;28;20452;-52
2022/04/23 10:52:49;;;;;;;5.37;4.97;;;16.70;79.80;;;;;;5040903;28;20448;-51
2022/04/23 10:55:18;;;;;;;5.17;4.77;;;16.80;79.10;;;;;;5040139;28;20490;-52
2022/04/23 10:57:52;;;;;;;7.03;5.00;;;16.80;78.90;;;;;;5044522;28;20404;-50
2022/04/23 11:00:20;;;;;;;6.70;5.43;;;16.90;79.60;;;;;;5044301;28;20692;-51
2022/04/23 11:02:48;;;;;;;6.53;5.90;;;17.00;78.30;;;;;;5043735;28;20486;-49
2022/04/23 11:13:58;;;;;;;5.73;5.23;;;17.30;80.90;;;;;;5043782;28;20436;-50
2022/04/23 11:16:29;;;;;;;6.47;5.37;;;17.20;79.90;;;;;;5043599;28;20474;-52
2022/04/23 11:18:59;;;;;;;5.20;4.80;;;17.30;80.00;;;;;;5043806;28;20522;-50
2022/04/23 11:21:32;;;;;;;5.83;5.23;;;17.40;79.50;;;;;;5044171;28;20431;-52
2022/04/23 11:24:09;;;;;;;6.10;5.50;;;17.40;79.40;;;;;;5043833;28;20472;-53
2022/04/23 11:26:38;;;;;;;5.30;4.70;;;17.50;78.30;;;;;;5044464;28;20440;-52
2022/04/23 11:29:06;;;;;;;8.87;5.93;;;17.70;79.60;;;;;;5043963;28;20435;-52
2022/04/23 11:31:33;;;;;;;5.40;4.90;;;17.50;79.70;;;;;;5045015;28;20414;-52
2022/04/23 11:34:02;;;;;;;5.87;5.27;;;17.30;80.40;;;;;;5044269;28;20456;-50
2022/04/23 11:36:32;;;;;;;5.83;5.33;;;16.90;81.70;;;;;;5044585;28;20473;-53
2022/04/23 11:39:07;;;;;;;7.10;5.40;;;16.90;82.90;;;;;;5044080;28;20433;-50
2022/04/23 11:41:47;;;;;;;6.77;6.07;;;16.90;82.80;;;;;;5045047;28;20429;-52
2022/04/23 11:47:15;;;;;;;6.33;5.73;;;16.40;83.80;;;;;;5043976;28;20432;-52
2022/04/23 11:49:42;;;;;;;6.83;6.23;;;16.50;84.80;;;;;;5043317;28;20513;-50
2022/04/23 11:52:14;;;;;;;5.73;5.20;;;16.60;83.50;;;;;;5043758;28;20515;-53
2022/04/23 11:54:43;;;;;;;6.37;5.67;;;16.30;82.80;;;;;;5043223;28;20411;-49
2022/04/23 11:57:19;;;;;;;5.60;5.10;;;16.20;82.70;;;;;;5043099;28;20610;-52
2022/04/23 11:59:50;;;;;;;5.40;4.80;;;16.30;82.70;;;;;;5042488;28;20426;-50
2022/04/23 12:02:18;;;;;;;5.67;5.00;;;16.60;82.00;;;;;;5042919;28;20409;-50
2022/04/23 12:04:46;;;;;;;5.37;4.87;;;16.80;81.50;;;;;;5042189;28;20433;-51
2022/04/23 12:07:15;;;;;;;5.63;5.20;;;16.90;80.60;;;;;;5041611;28;20439;-51
2022/04/23 12:09:45;;;;;;;4.50;4.10;;;17.20;80.60;;;;;;5042005;28;20430;-51
2022/04/23 12:12:20;;;;;;;5.43;4.90;;;17.30;78.70;;;;;;5042328;28;20467;-51
2022/04/23 12:14:55;;;;;;;8.40;6.27;;;17.20;78.60;;;;;;5041795;28;20435;-52
2022/04/23 12:17:30;;;;;;;7.13;6.43;;;17.20;82.10;;;;;;5041908;28;20746;-50
2022/04/23 12:20:00;;;;;;;6.70;6.17;;;17.00;82.90;;;;;;5041656;28;20447;-51
2022/04/23 12:22:29;;;;;;;8.13;6.17;;;16.40;83.60;;;;;;5042062;28;20407;-51
2022/04/23 12:25:16;;;;;;;6.37;5.57;;;16.10;84.50;;;;;;5041826;28;20838;-50
2022/04/23 12:42:13;;;;;;;5.97;5.33;;;17.40;80.90;;;;;;5026592;28;20409;-49
2022/04/23 12:44:46;;;;;;;6.00;5.40;;;16.70;81.10;;;;;;5036065;28;20434;-50
2022/04/23 12:47:19;;;;;;;5.90;5.43;;;16.60;81.70;;;;;;5039330;28;20859;-51
2022/04/23 12:49:56;;;;;;;7.70;5.80;;;16.50;81.40;;;;;;5025301;28;20452;-50
2022/04/23 12:52:28;;;;;;;7.47;6.10;;;16.20;82.00;;;;;;5036191;28;20471;-52
2022/04/23 12:55:28;;;;;;;6.93;6.20;;;16.50;83.60;;;;;;5040732;28;20431;-50
2022/04/23 12:58:08;;;;;;;5.20;4.80;;;16.80;81.90;;;;;;5041036;28;20410;-50
2022/04/23 13:00:40;;;;;;;5.57;5.07;;;17.10;79.90;;;;;;5042806;28;20429;-51
2022/04/23 13:03:31;;;;;;;6.73;5.67;;;17.40;80.00;;;;;;5041997;28;20457;-49
2022/04/23 13:05:59;;;;;;;4.80;4.30;;;17.70;79.60;;;;;;5043564;28;20423;-52
2022/04/23 13:11:32;;;;;;;5.07;4.60;;;17.10;78.80;;;;;;5059222;28;20577;-50
2022/04/23 13:14:04;;;;;;;6.80;5.00;;;16.70;79.90;;;;;;5058491;28;20453;-50
2022/04/23 13:16:34;;;;;;;6.50;4.90;;;16.60;80.30;;;;;;5049167;28;20409;-50
2022/04/23 13:19:04;;;;;;;8.90;5.77;;;16.50;80.40;;;;;;5040000;28;20433;-51
2022/04/23 13:21:33;;;;;;;5.27;4.77;;;16.60;80.90;;;;;;5041608;28;20454;-50
2022/04/23 13:24:00;;;;;;;8.63;6.87;;;16.60;80.00;;;;;;5040763;28;20527;-50
2022/04/23 13:26:29;;;;;;;6.20;5.60;;;16.60;81.80;;;;;;5040775;28;20665;-49
2022/04/23 13:29:00;;;;;;;8.40;5.80;;;16.60;82.10;;;;;;5040509;28;20461;-53
2022/04/23 13:31:28;;;;;;;6.07;5.47;;;16.70;83.10;;;;;;5040257;28;20465;-49
2022/04/23 13:33:55;;;;;;;6.30;5.17;;;16.80;81.60;;;;;;5040639;28;20475;-54